createdAt,value
2022-12-13T00:00:13.102Z,27.63
2022-12-13T00:00:43.217Z,27.63
2022-12-13T00:01:13.331Z,27.63
2022-12-13T00:01:43.524Z,27.58
2022-12-13T00:02:13.500Z,27.63
2022-12-13T00:02:43.484Z,27.61
2022-12-13T00:03:13.605Z,27.58
2022-12-13T00:03:43.782Z,27.66
2022-12-13T00:04:13.859Z,27.64
2022-12-13T00:04:43.760Z,27.61
2022-12-13T00:05:14.134Z,27.63
2022-12-13T00:05:43.931Z,27.56
2022-12-13T00:06:14.044Z,27.61
2022-12-13T00:06:44.154Z,27.56
2022-12-13T00:07:14.150Z,27.63
2022-12-13T00:07:44.262Z,27.58
2022-12-13T00:08:14.441Z,27.58
2022-12-13T00:08:44.402Z,27.61
2022-12-13T00:09:14.523Z,27.63
2022-12-13T00:09:44.509Z,27.53
2022-12-13T00:10:14.623Z,27.63
2022-12-13T00:10:44.760Z,27.59
2022-12-13T00:11:14.861Z,27.61
2022-12-13T00:11:44.968Z,27.59
2022-12-13T00:12:15.082Z,27.63
2022-12-13T00:12:45.214Z,27.61
2022-12-13T00:13:15.309Z,27.61
2022-12-13T00:13:45.300Z,27.55
2022-12-13T00:14:15.468Z,27.63
2022-12-13T00:14:45.455Z,27.58
2022-12-13T00:15:15.896Z,27.62
2022-12-13T00:15:45.807Z,27.58
2022-12-13T00:16:15.867Z,27.63
2022-12-13T00:16:45.898Z,27.59
2022-12-13T00:17:16.095Z,27.58
2022-12-13T00:17:45.976Z,27.59
2022-12-13T00:18:15.976Z,27.61
2022-12-13T00:18:46.086Z,27.56
2022-12-13T00:19:16.206Z,27.59
2022-12-13T00:19:46.345Z,27.59
2022-12-13T00:20:16.365Z,27.56
2022-12-13T00:20:46.352Z,27.54
2022-12-13T00:21:16.458Z,27.61
2022-12-13T00:21:46.570Z,27.59
2022-12-13T00:22:16.682Z,27.64
2022-12-13T00:22:46.801Z,27.58
2022-12-13T00:23:16.910Z,27.57
2022-12-13T00:23:47.029Z,27.56
2022-12-13T00:24:17.022Z,27.54
2022-12-13T00:24:47.138Z,27.60
2022-12-13T00:25:17.321Z,27.60
2022-12-13T00:25:47.270Z,27.59
2022-12-13T00:26:17.384Z,27.57
2022-12-13T00:26:47.494Z,27.60
2022-12-13T00:27:17.602Z,27.59
2022-12-13T00:27:47.735Z,27.56
2022-12-13T00:28:17.827Z,27.57
2022-12-13T00:28:47.938Z,27.56
2022-12-13T00:29:18.067Z,27.57
2022-12-13T00:29:48.052Z,27.61
2022-12-13T00:30:18.266Z,27.58
2022-12-13T00:30:48.359Z,27.58
2022-12-13T00:32:03.892Z,27.56
2022-12-13T00:32:18.382Z,27.58
2022-12-13T00:32:48.365Z,27.48
2022-12-13T00:33:18.531Z,27.56
2022-12-13T00:33:48.481Z,27.50
2022-12-13T00:34:18.627Z,27.50
2022-12-13T00:34:48.606Z,27.48
2022-12-13T00:35:18.698Z,27.50
2022-12-13T00:35:48.768Z,27.50
2022-12-13T00:36:18.846Z,27.51
2022-12-13T00:36:48.916Z,27.48
2022-12-13T00:37:18.987Z,27.48
2022-12-13T00:37:49.063Z,27.45
2022-12-13T00:38:19.136Z,27.45
2022-12-13T00:38:49.209Z,27.45
2022-12-13T00:39:19.411Z,27.48
2022-12-13T00:39:49.327Z,27.44
2022-12-13T00:40:19.419Z,27.44
2022-12-13T00:40:49.485Z,27.42
2022-12-13T00:41:19.566Z,27.42
2022-12-13T00:41:49.637Z,27.44
2022-12-13T00:42:19.710Z,27.47
2022-12-13T00:42:49.789Z,27.40
2022-12-13T00:43:19.916Z,27.42
2022-12-13T00:43:49.998Z,27.41
2022-12-13T00:44:20.224Z,27.41
2022-12-13T00:44:50.185Z,27.45
2022-12-13T00:45:20.316Z,27.41
2022-12-13T00:45:50.318Z,27.41
2022-12-13T00:46:20.479Z,27.39
2022-12-13T00:46:50.452Z,27.42
2022-12-13T00:47:20.563Z,27.39
2022-12-13T00:47:50.678Z,27.42
2022-12-13T00:48:20.786Z,27.42
2022-12-13T00:48:50.898Z,27.45
2022-12-13T00:49:21.016Z,27.44
2022-12-13T00:49:51.038Z,27.45
2022-12-13T00:50:21.183Z,27.48
2022-12-13T00:50:51.205Z,27.48
2022-12-13T00:51:21.189Z,27.45
2022-12-13T00:51:51.313Z,27.44
2022-12-13T00:52:21.415Z,27.48
2022-12-13T00:52:51.536Z,27.48
2022-12-13T00:53:21.643Z,27.46
2022-12-13T00:53:51.753Z,27.48
2022-12-13T00:54:21.868Z,27.42
2022-12-13T00:54:51.978Z,27.47
2022-12-13T00:55:22.100Z,27.46
2022-12-13T00:55:52.091Z,27.48
2022-12-13T00:56:22.199Z,27.38
2022-12-13T00:56:52.322Z,27.47
2022-12-13T00:57:22.425Z,27.51
2022-12-13T00:57:52.533Z,27.48
2022-12-13T00:58:22.673Z,27.49
2022-12-13T00:58:52.758Z,27.49
2022-12-13T00:59:22.868Z,27.49
2022-12-13T00:59:52.873Z,27.49
2022-12-13T01:00:22.863Z,27.51
2022-12-13T01:00:52.975Z,27.44
2022-12-13T01:01:23.139Z,27.48
2022-12-13T01:01:53.203Z,27.47
2022-12-13T01:02:23.167Z,27.45
2022-12-13T01:02:53.279Z,27.48
2022-12-13T01:03:23.460Z,27.51
2022-12-13T01:03:53.451Z,27.48
2022-12-13T01:04:23.577Z,27.49
2022-12-13T01:04:53.694Z,27.44
2022-12-13T01:06:02.202Z,27.51
2022-12-13T01:06:23.706Z,27.51
2022-12-13T01:06:53.822Z,27.48
2022-12-13T01:07:23.934Z,27.51
2022-12-13T01:07:54.088Z,27.46
2022-12-13T01:08:24.111Z,27.44
2022-12-13T01:08:54.075Z,27.44
2022-12-13T01:09:24.191Z,27.53
2022-12-13T01:09:54.306Z,27.48
2022-12-13T01:10:24.429Z,27.51
2022-12-13T01:10:54.417Z,27.46
2022-12-13T01:11:24.528Z,27.48
2022-12-13T01:11:54.640Z,27.48
2022-12-13T01:12:24.754Z,27.53
2022-12-13T01:12:54.869Z,27.51
2022-12-13T01:13:24.982Z,27.43
2022-12-13T01:13:55.116Z,27.44
2022-12-13T01:14:25.210Z,27.49
2022-12-13T01:14:56.259Z,27.44
2022-12-13T01:15:25.356Z,27.44
2022-12-13T01:15:55.466Z,27.40
2022-12-13T01:16:25.621Z,27.44
2022-12-13T01:16:55.782Z,27.44
2022-12-13T01:17:25.640Z,27.43
2022-12-13T01:17:55.629Z,27.46
2022-12-13T01:18:25.743Z,27.47
2022-12-13T01:18:55.850Z,27.41
2022-12-13T01:19:25.994Z,27.49
2022-12-13T01:19:55.987Z,27.41
2022-12-13T01:20:26.094Z,27.44
2022-12-13T01:20:56.208Z,27.39
2022-12-13T01:21:26.323Z,27.40
2022-12-13T01:21:56.433Z,27.46
2022-12-13T01:22:26.553Z,27.41
2022-12-13T01:22:56.665Z,27.43
2022-12-13T01:23:26.781Z,27.38
2022-12-13T01:23:56.894Z,27.38
2022-12-13T01:24:26.999Z,27.44
2022-12-13T01:24:57.119Z,27.39
2022-12-13T01:25:27.242Z,27.47
2022-12-13T01:25:57.229Z,27.39
2022-12-13T01:26:27.343Z,27.44
2022-12-13T01:26:57.451Z,27.44
2022-12-13T01:27:27.568Z,27.44
2022-12-13T01:27:57.683Z,27.39
2022-12-13T01:28:27.789Z,27.43
2022-12-13T01:28:57.930Z,27.44
2022-12-13T01:29:28.042Z,27.43
2022-12-13T01:29:58.032Z,27.41
2022-12-13T01:30:28.158Z,27.40
2022-12-13T01:30:58.306Z,27.41
2022-12-13T01:31:28.285Z,27.38
2022-12-13T01:31:58.400Z,27.41
2022-12-13T01:32:28.509Z,27.37
2022-12-13T01:32:58.622Z,27.38
2022-12-13T01:33:28.698Z,27.35
2022-12-13T01:33:58.769Z,27.30
2022-12-13T01:34:28.878Z,27.30
2022-12-13T01:34:58.954Z,27.34
2022-12-13T01:35:29.081Z,27.38
2022-12-13T01:35:59.035Z,27.35
2022-12-13T01:36:29.114Z,27.23
2022-12-13T01:36:59.187Z,27.31
2022-12-13T01:37:29.259Z,27.31
2022-12-13T01:37:59.330Z,27.26
2022-12-13T01:38:29.401Z,27.23
2022-12-13T01:38:59.607Z,27.23
2022-12-13T01:39:29.564Z,27.26
2022-12-13T01:39:59.642Z,27.15
2022-12-13T01:40:29.721Z,27.15
2022-12-13T01:40:59.791Z,27.15
2022-12-13T01:41:29.862Z,27.20
2022-12-13T01:42:00.363Z,27.12
2022-12-13T01:42:30.052Z,27.19
2022-12-13T01:43:00.152Z,27.12
2022-12-13T01:43:30.143Z,27.09
2022-12-13T01:44:00.259Z,27.11
2022-12-13T01:44:30.277Z,27.12
2022-12-13T01:45:00.366Z,27.12
2022-12-13T01:45:30.361Z,27.12
2022-12-13T01:46:00.544Z,27.11
2022-12-13T01:46:30.589Z,27.06
2022-12-13T01:47:00.564Z,27.12
2022-12-13T01:47:30.681Z,27.08
2022-12-13T01:48:00.798Z,27.05
2022-12-13T01:48:30.906Z,27.06
2022-12-13T01:49:01.021Z,27.06
2022-12-13T01:49:31.148Z,27.05
2022-12-13T01:50:01.133Z,27.06
2022-12-13T01:50:31.246Z,27.05
2022-12-13T01:51:01.355Z,27.00
2022-12-13T01:51:31.477Z,27.00
2022-12-13T01:52:01.589Z,27.00
2022-12-13T01:52:31.695Z,27.01
2022-12-13T01:53:01.815Z,27.03
2022-12-13T01:53:31.925Z,27.00
2022-12-13T01:54:02.035Z,27.00
2022-12-13T01:54:33.530Z,27.00
2022-12-13T01:55:03.607Z,26.98
2022-12-13T01:55:32.214Z,27.01
2022-12-13T01:56:02.332Z,26.98
2022-12-13T01:56:32.440Z,26.95
2022-12-13T01:57:02.551Z,27.03
2022-12-13T01:57:32.661Z,26.95
2022-12-13T01:58:02.775Z,26.97
2022-12-13T01:58:32.882Z,27.00
2022-12-13T01:59:02.992Z,27.01
2022-12-13T01:59:33.349Z,26.99
2022-12-13T02:00:03.178Z,27.03
2022-12-13T02:00:33.276Z,26.98
2022-12-13T02:01:03.432Z,27.02
2022-12-13T02:01:33.446Z,27.04
2022-12-13T02:02:03.447Z,27.06
2022-12-13T02:02:33.543Z,27.07
2022-12-13T02:03:03.657Z,27.07
2022-12-13T02:03:33.655Z,27.01
2022-12-13T02:04:03.775Z,27.04
2022-12-13T02:04:33.999Z,27.05
2022-12-13T02:05:04.054Z,27.09
2022-12-13T02:05:34.162Z,27.09
2022-12-13T02:06:04.180Z,27.07
2022-12-13T02:06:34.290Z,27.07
2022-12-13T02:07:04.406Z,27.05
2022-12-13T02:07:34.516Z,27.11
2022-12-13T02:08:04.763Z,27.07
2022-12-13T02:08:35.592Z,27.10
2022-12-13T02:09:04.674Z,27.08
2022-12-13T02:09:34.807Z,27.13
2022-12-13T02:10:04.796Z,27.16
2022-12-13T02:10:34.903Z,27.10
2022-12-13T02:11:05.016Z,27.10
2022-12-13T02:11:35.127Z,27.14
2022-12-13T02:12:05.240Z,27.11
2022-12-13T02:12:35.360Z,27.16
2022-12-13T02:13:05.462Z,27.14
2022-12-13T02:13:35.580Z,27.13
2022-12-13T02:14:05.699Z,27.14
2022-12-13T02:14:35.721Z,27.13
2022-12-13T02:15:05.791Z,27.16
2022-12-13T02:15:35.786Z,27.11
2022-12-13T02:16:05.815Z,27.12
2022-12-13T02:16:35.793Z,27.14
2022-12-13T02:17:05.903Z,27.14
2022-12-13T02:17:36.014Z,27.11
2022-12-13T02:18:06.030Z,27.10
2022-12-13T02:18:36.147Z,27.15
2022-12-13T02:19:06.254Z,27.19
2022-12-13T02:19:36.367Z,27.15
2022-12-13T02:20:06.489Z,27.19
2022-12-13T02:20:36.475Z,27.15
2022-12-13T02:21:06.592Z,27.17
2022-12-13T02:21:36.706Z,27.14
2022-12-13T02:22:06.820Z,27.22
2022-12-13T02:22:36.933Z,27.14
2022-12-13T02:23:07.052Z,27.20
2022-12-13T02:23:37.159Z,27.15
2022-12-13T02:24:09.044Z,27.12
2022-12-13T02:24:37.327Z,27.19
2022-12-13T02:25:07.463Z,27.19
2022-12-13T02:25:37.444Z,27.15
2022-12-13T02:26:07.558Z,27.22
2022-12-13T02:26:37.670Z,27.19
2022-12-13T02:27:07.890Z,27.07
2022-12-13T02:27:42.633Z,27.17
2022-12-13T02:28:30.929Z,27.12
2022-12-13T02:28:37.919Z,27.15
2022-12-13T02:29:08.024Z,27.19
2022-12-13T02:29:38.155Z,27.22
2022-12-13T02:30:08.164Z,27.20
2022-12-13T02:30:38.259Z,27.17
2022-12-13T02:31:08.267Z,27.15
2022-12-13T02:31:38.398Z,27.17
2022-12-13T02:32:08.480Z,27.15
2022-12-13T02:32:38.598Z,27.12
2022-12-13T02:33:08.699Z,27.17
2022-12-13T02:33:38.774Z,27.12
2022-12-13T02:34:08.822Z,27.14
2022-12-13T02:34:38.903Z,27.17
2022-12-13T02:35:08.981Z,27.20
2022-12-13T02:35:39.056Z,27.09
2022-12-13T02:36:09.128Z,27.12
2022-12-13T02:36:39.201Z,27.17
2022-12-13T02:37:17.818Z,27.15
2022-12-13T02:37:39.376Z,27.21
2022-12-13T02:38:09.444Z,27.18
2022-12-13T02:38:39.521Z,27.12
2022-12-13T02:39:09.601Z,27.10
2022-12-13T02:39:39.681Z,27.14
2022-12-13T02:40:09.755Z,27.18
2022-12-13T02:40:39.829Z,27.15
2022-12-13T02:41:09.908Z,27.15
2022-12-13T02:41:39.979Z,27.17
2022-12-13T02:42:21.472Z,27.17
2022-12-13T02:42:40.159Z,27.15
2022-12-13T02:43:10.237Z,27.09
2022-12-13T02:43:45.344Z,27.15
2022-12-13T02:44:22.546Z,27.12
2022-12-13T02:44:40.404Z,27.12
2022-12-13T02:45:13.389Z,27.14
2022-12-13T02:45:40.404Z,27.12
2022-12-13T02:46:10.555Z,27.12
2022-12-13T02:46:40.589Z,27.07
2022-12-13T02:47:12.824Z,27.05
2022-12-13T02:47:40.570Z,27.11
2022-12-13T02:48:10.684Z,27.05
2022-12-13T02:48:40.795Z,27.08
2022-12-13T02:49:10.911Z,27.05
2022-12-13T02:49:41.017Z,27.03
2022-12-13T02:50:11.135Z,27.01
2022-12-13T02:50:41.244Z,27.00
2022-12-13T02:51:11.359Z,27.02
2022-12-13T02:51:41.476Z,26.97
2022-12-13T02:52:12.609Z,26.96
2022-12-13T02:52:41.668Z,26.99
2022-12-13T02:53:11.787Z,26.94
2022-12-13T02:53:41.898Z,26.93
2022-12-13T02:54:12.016Z,26.93
2022-12-13T02:54:42.673Z,26.93
2022-12-13T02:55:12.329Z,26.93
2022-12-13T02:55:42.221Z,26.91
2022-12-13T02:56:12.337Z,26.90
2022-12-13T02:56:42.449Z,26.88
2022-12-13T02:57:12.561Z,26.88
2022-12-13T02:57:42.573Z,26.85
2022-12-13T02:58:12.685Z,26.88
2022-12-13T02:58:42.798Z,26.83
2022-12-13T02:59:12.909Z,26.86
2022-12-13T02:59:43.036Z,26.85
2022-12-13T03:00:13.046Z,26.90
2022-12-13T03:00:43.132Z,26.91
2022-12-13T03:01:28.996Z,26.86
2022-12-13T03:01:43.271Z,26.86
2022-12-13T03:02:13.437Z,26.85
2022-12-13T03:02:43.719Z,26.86
2022-12-13T03:03:13.622Z,26.84
2022-12-13T03:03:43.546Z,26.86
2022-12-13T03:04:13.570Z,26.84
2022-12-13T03:04:43.678Z,26.91
2022-12-13T03:05:14.134Z,26.89
2022-12-13T03:05:43.896Z,26.92
2022-12-13T03:06:14.007Z,26.86
2022-12-13T03:06:44.125Z,26.92
2022-12-13T03:07:14.239Z,26.90
2022-12-13T03:07:44.354Z,26.91
2022-12-13T03:08:14.535Z,26.94
2022-12-13T03:08:44.518Z,26.92
2022-12-13T03:09:14.633Z,26.90
2022-12-13T03:09:44.744Z,26.92
2022-12-13T03:10:14.862Z,26.98
2022-12-13T03:10:44.975Z,27.01
2022-12-13T03:11:15.108Z,26.89
2022-12-13T03:11:45.198Z,26.97
2022-12-13T03:12:15.309Z,26.95
2022-12-13T03:12:45.415Z,26.97
2022-12-13T03:13:15.534Z,26.90
2022-12-13T03:13:45.646Z,26.92
2022-12-13T03:14:15.759Z,26.92
2022-12-13T03:14:45.871Z,26.97
2022-12-13T03:15:16.322Z,26.98
2022-12-13T03:15:46.159Z,27.03
2022-12-13T03:16:22.720Z,26.96
2022-12-13T03:16:46.179Z,26.98
2022-12-13T03:17:16.292Z,27.01
2022-12-13T03:17:46.406Z,26.98
2022-12-13T03:18:16.544Z,26.93
2022-12-13T03:18:46.638Z,27.01
2022-12-13T03:19:16.650Z,26.98
2022-12-13T03:19:46.762Z,26.93
2022-12-13T03:20:23.291Z,26.99
2022-12-13T03:20:46.762Z,27.00
2022-12-13T03:21:16.876Z,27.03
2022-12-13T03:21:48.253Z,26.99
2022-12-13T03:22:17.115Z,27.01
2022-12-13T03:22:47.229Z,26.98
2022-12-13T03:23:17.338Z,26.96
2022-12-13T03:23:47.453Z,26.99
2022-12-13T03:24:17.575Z,27.04
2022-12-13T03:24:47.681Z,27.03
2022-12-13T03:25:31.583Z,27.04
2022-12-13T03:25:47.805Z,26.98
2022-12-13T03:26:17.915Z,27.04
2022-12-13T03:26:48.036Z,27.04
2022-12-13T03:27:18.141Z,27.02
2022-12-13T03:27:48.254Z,27.09
2022-12-13T03:28:18.370Z,27.04
2022-12-13T03:28:48.479Z,27.07
2022-12-13T03:29:24.135Z,27.02
2022-12-13T03:29:48.612Z,27.09
2022-12-13T03:30:18.744Z,27.04
2022-12-13T03:30:48.843Z,27.07
2022-12-13T03:31:19.034Z,27.04
2022-12-13T03:31:49.028Z,27.06
2022-12-13T03:32:19.141Z,27.04
2022-12-13T03:32:49.256Z,27.07
2022-12-13T03:33:19.368Z,27.02
2022-12-13T03:33:49.484Z,27.10
2022-12-13T03:34:23.057Z,27.09
2022-12-13T03:34:53.377Z,27.09
2022-12-13T03:35:21.894Z,27.11
2022-12-13T03:35:49.740Z,27.05
2022-12-13T03:36:19.856Z,27.05
2022-12-13T03:36:49.996Z,27.05
2022-12-13T03:37:20.081Z,27.07
2022-12-13T03:37:50.202Z,27.10
2022-12-13T03:38:22.690Z,27.10
2022-12-13T03:38:50.373Z,27.11
2022-12-13T03:39:20.357Z,27.08
2022-12-13T03:39:50.474Z,27.09
2022-12-13T03:40:20.581Z,27.05
2022-12-13T03:40:50.694Z,27.04
2022-12-13T03:41:20.805Z,27.00
2022-12-13T03:41:50.922Z,27.06
2022-12-13T03:42:21.038Z,27.04
2022-12-13T03:42:51.150Z,27.04
2022-12-13T03:43:22.511Z,27.05
2022-12-13T03:43:51.224Z,27.02
2022-12-13T03:44:21.249Z,27.08
2022-12-13T03:44:51.278Z,27.07
2022-12-13T03:45:21.304Z,27.04
2022-12-13T03:45:51.375Z,27.02
2022-12-13T03:46:21.424Z,27.04
2022-12-13T03:46:51.523Z,27.05
2022-12-13T03:47:21.548Z,27.07
2022-12-13T03:47:51.568Z,27.01
2022-12-13T03:48:21.750Z,27.04
2022-12-13T03:48:51.613Z,27.03
2022-12-13T03:49:21.638Z,26.99
2022-12-13T03:49:54.298Z,26.96
2022-12-13T03:50:26.660Z,27.01
2022-12-13T03:50:51.729Z,27.01
2022-12-13T03:51:21.736Z,26.96
2022-12-13T03:51:51.757Z,26.99
2022-12-13T03:52:21.777Z,26.95
2022-12-13T03:52:51.814Z,26.96
2022-12-13T03:53:32.693Z,26.90
2022-12-13T03:53:51.874Z,26.90
2022-12-13T03:54:21.894Z,26.89
2022-12-13T03:54:51.928Z,26.90
2022-12-13T03:55:21.958Z,26.85
2022-12-13T03:55:51.983Z,26.87
2022-12-13T03:56:22.007Z,26.89
2022-12-13T03:56:52.027Z,26.85
2022-12-13T03:57:22.054Z,26.86
2022-12-13T03:57:52.074Z,26.87
2022-12-13T03:58:22.101Z,26.82
2022-12-13T03:58:52.126Z,26.79
2022-12-13T03:59:22.152Z,26.78
2022-12-13T03:59:52.173Z,26.81
2022-12-13T04:00:22.203Z,26.75
2022-12-13T04:00:52.226Z,26.78
2022-12-13T04:01:22.410Z,26.71
2022-12-13T04:01:52.394Z,26.78
2022-12-13T04:02:30.915Z,26.78
2022-12-13T04:02:52.519Z,26.76
2022-12-13T04:03:22.633Z,26.73
2022-12-13T04:03:52.634Z,26.72
2022-12-13T04:04:22.666Z,26.76
2022-12-13T04:04:52.687Z,26.73
2022-12-13T04:05:22.707Z,26.76
2022-12-13T04:05:52.730Z,26.77
2022-12-13T04:06:24.678Z,26.76
2022-12-13T04:06:52.758Z,26.84
2022-12-13T04:07:22.892Z,26.84
2022-12-13T04:07:53.010Z,26.82
2022-12-13T04:08:23.047Z,26.74
2022-12-13T04:08:53.059Z,26.84
2022-12-13T04:09:22.961Z,26.79
2022-12-13T04:09:52.990Z,26.82
2022-12-13T04:10:26.429Z,26.81
2022-12-13T04:10:53.092Z,26.82
2022-12-13T04:11:23.127Z,26.82
2022-12-13T04:11:53.154Z,26.81
2022-12-13T04:12:23.186Z,26.82
2022-12-13T04:12:53.213Z,26.81
2022-12-13T04:13:23.244Z,26.85
2022-12-13T04:13:53.273Z,26.87
2022-12-13T04:14:23.306Z,26.88
2022-12-13T04:14:53.333Z,26.88
2022-12-13T04:15:23.359Z,26.83
2022-12-13T04:15:53.427Z,26.85
2022-12-13T04:16:23.608Z,26.78
2022-12-13T04:16:53.516Z,26.78
2022-12-13T04:17:23.517Z,26.87
2022-12-13T04:17:53.539Z,26.88
2022-12-13T04:18:23.572Z,26.83
2022-12-13T04:18:53.606Z,26.80
2022-12-13T04:19:24.189Z,26.85
2022-12-13T04:19:53.744Z,26.83
2022-12-13T04:20:23.751Z,26.86
2022-12-13T04:20:53.776Z,26.80
2022-12-13T04:21:23.805Z,26.83
2022-12-13T04:21:53.831Z,26.80
2022-12-13T04:22:25.076Z,26.75
2022-12-13T04:22:53.867Z,26.82
2022-12-13T04:23:23.891Z,26.90
2022-12-13T04:23:53.915Z,26.80
2022-12-13T04:24:30.995Z,26.82
2022-12-13T04:24:53.980Z,26.88
2022-12-13T04:25:24.010Z,26.86
2022-12-13T04:25:54.034Z,26.86
2022-12-13T04:26:24.062Z,26.78
2022-12-13T04:26:54.091Z,26.83
2022-12-13T04:27:24.109Z,26.84
2022-12-13T04:27:54.142Z,26.82
2022-12-13T04:28:24.160Z,26.85
2022-12-13T04:28:54.925Z,26.90
2022-12-13T04:29:24.238Z,26.88
2022-12-13T04:29:54.264Z,26.86
2022-12-13T04:30:24.290Z,26.85
2022-12-13T04:30:54.349Z,26.83
2022-12-13T04:31:24.420Z,26.83
2022-12-13T04:31:54.463Z,26.84
2022-12-13T04:32:26.380Z,26.88
2022-12-13T04:32:54.514Z,26.89
2022-12-13T04:33:24.516Z,26.83
2022-12-13T04:33:54.503Z,26.84
2022-12-13T04:34:26.417Z,26.88
2022-12-13T04:35:01.323Z,26.86
2022-12-13T04:35:24.725Z,26.84
2022-12-13T04:35:54.854Z,26.91
2022-12-13T04:36:32.181Z,26.84
2022-12-13T04:36:54.858Z,26.89
2022-12-13T04:37:24.972Z,26.88
2022-12-13T04:37:55.090Z,26.86
2022-12-13T04:38:25.199Z,26.92
2022-12-13T04:38:55.316Z,26.89
2022-12-13T04:39:25.428Z,26.84
2022-12-13T04:40:01.019Z,26.87
2022-12-13T04:40:25.453Z,26.89
2022-12-13T04:40:55.569Z,26.88
2022-12-13T04:41:25.683Z,26.88
2022-12-13T04:41:55.705Z,26.89
2022-12-13T04:42:25.685Z,26.88
2022-12-13T04:42:55.797Z,26.88
2022-12-13T04:43:25.830Z,26.81
2022-12-13T04:43:55.876Z,26.81
2022-12-13T04:44:27.855Z,26.80
2022-12-13T04:44:55.907Z,26.88
2022-12-13T04:45:25.976Z,26.88
2022-12-13T04:45:56.208Z,26.84
2022-12-13T04:46:26.098Z,26.81
2022-12-13T04:46:56.127Z,26.81
2022-12-13T04:47:26.196Z,26.80
2022-12-13T04:47:56.250Z,26.86
2022-12-13T04:48:30.754Z,26.82
2022-12-13T04:48:56.303Z,26.83
2022-12-13T04:49:26.335Z,26.93
2022-12-13T04:49:56.360Z,26.83
2022-12-13T04:50:26.387Z,26.85
2022-12-13T04:50:56.416Z,26.90
2022-12-13T04:51:26.490Z,26.87
2022-12-13T04:52:00.907Z,26.93
2022-12-13T04:52:26.562Z,27.05
2022-12-13T04:52:56.595Z,27.06
2022-12-13T04:53:26.618Z,27.14
2022-12-13T04:53:56.684Z,27.22
2022-12-13T04:54:26.687Z,27.15
2022-12-13T04:54:56.743Z,27.20
2022-12-13T04:55:26.769Z,27.16
2022-12-13T04:55:56.790Z,27.20
2022-12-13T04:56:27.009Z,27.12
2022-12-13T04:56:56.913Z,27.10
2022-12-13T04:57:26.938Z,27.11
2022-12-13T04:57:56.973Z,27.10
2022-12-13T04:58:26.996Z,27.15
2022-12-13T04:58:57.040Z,27.22
2022-12-13T04:59:27.054Z,27.33
2022-12-13T04:59:57.081Z,27.44
2022-12-13T05:00:27.112Z,27.44
2022-12-13T05:00:57.224Z,27.36
2022-12-13T05:01:27.231Z,27.39
2022-12-13T05:01:57.337Z,27.49
2022-12-13T05:02:27.283Z,27.52
2022-12-13T05:02:57.355Z,27.54
2022-12-13T05:03:27.407Z,27.51
2022-12-13T05:03:57.424Z,27.54
2022-12-13T05:04:32.311Z,27.52
2022-12-13T05:04:57.485Z,27.54
2022-12-13T05:05:27.532Z,27.60
2022-12-13T05:05:57.566Z,27.62
2022-12-13T05:06:27.951Z,27.64
2022-12-13T05:06:57.702Z,27.67
2022-12-13T05:07:27.734Z,27.73
2022-12-13T05:07:57.795Z,27.75
2022-12-13T05:08:27.888Z,27.85
2022-12-13T05:09:01.052Z,27.97
2022-12-13T05:09:27.995Z,28.07
2022-12-13T05:09:58.033Z,28.10
2022-12-13T05:10:33.837Z,28.03
2022-12-13T05:10:58.138Z,28.04
2022-12-13T05:11:28.164Z,28.02
2022-12-13T05:12:01.002Z,28.01
2022-12-13T05:12:28.322Z,28.01
2022-12-13T05:12:58.341Z,27.98
2022-12-13T05:13:28.345Z,27.93
2022-12-13T05:13:58.365Z,27.96
2022-12-13T05:14:28.389Z,27.92
2022-12-13T05:14:58.416Z,27.93
2022-12-13T05:15:28.441Z,27.87
2022-12-13T05:15:58.472Z,27.87
2022-12-13T05:16:28.560Z,27.89
2022-12-13T05:16:58.724Z,27.85
2022-12-13T05:17:28.643Z,27.95
2022-12-13T05:17:58.668Z,27.93
2022-12-13T05:18:28.754Z,27.96
2022-12-13T05:18:58.759Z,27.87
2022-12-13T05:19:30.672Z,27.87
2022-12-13T05:19:58.854Z,27.95
2022-12-13T05:20:28.891Z,27.92
2022-12-13T05:20:58.914Z,27.92
2022-12-13T05:21:28.941Z,27.92
2022-12-13T05:22:01.180Z,27.92
2022-12-13T05:22:29.074Z,27.92
2022-12-13T05:22:59.100Z,27.89
2022-12-13T05:23:29.145Z,27.92
2022-12-13T05:23:59.173Z,27.92
2022-12-13T05:24:29.194Z,27.89
2022-12-13T05:24:59.222Z,27.89
2022-12-13T05:25:29.251Z,27.89
2022-12-13T05:25:59.275Z,27.84
2022-12-13T05:26:29.303Z,27.89
2022-12-13T05:26:59.338Z,27.89
2022-12-13T05:27:29.362Z,27.81
2022-12-13T05:27:59.390Z,27.81
2022-12-13T05:28:29.430Z,27.87
2022-12-13T05:28:59.453Z,27.83
2022-12-13T05:29:29.479Z,27.80
2022-12-13T05:30:02.884Z,27.84
2022-12-13T05:30:29.618Z,27.80
2022-12-13T05:30:59.648Z,27.81
2022-12-13T05:31:29.732Z,27.73
2022-12-13T05:31:59.845Z,27.75
2022-12-13T05:32:29.747Z,27.70
2022-12-13T05:32:59.770Z,27.72
2022-12-13T05:33:29.882Z,27.80
2022-12-13T05:34:01.470Z,27.80
2022-12-13T05:34:30.065Z,27.75
2022-12-13T05:35:00.180Z,27.76
2022-12-13T05:35:30.288Z,27.75
2022-12-13T05:36:02.166Z,27.75
2022-12-13T05:36:30.419Z,27.78
2022-12-13T05:37:00.536Z,27.80
2022-12-13T05:37:30.647Z,27.86
2022-12-13T05:38:00.710Z,27.86
2022-12-13T05:38:30.826Z,27.87
2022-12-13T05:39:00.943Z,27.91
2022-12-13T05:39:31.050Z,27.94
2022-12-13T05:40:01.183Z,28.32
2022-12-13T05:40:31.169Z,28.35
2022-12-13T05:41:01.278Z,28.45
2022-12-13T05:41:31.394Z,28.49
2022-12-13T05:42:02.694Z,28.38
2022-12-13T05:42:31.608Z,28.33
2022-12-13T05:43:02.169Z,28.57
2022-12-13T05:43:42.275Z,28.60
2022-12-13T05:44:01.761Z,28.60
2022-12-13T05:44:31.811Z,28.53
2022-12-13T05:45:01.820Z,28.68
2022-12-13T05:45:32.065Z,28.61
2022-12-13T05:46:01.964Z,28.63
2022-12-13T05:46:34.446Z,28.63
2022-12-13T05:47:03.015Z,28.63
2022-12-13T05:47:32.084Z,28.65
2022-12-13T05:48:02.105Z,28.73
2022-12-13T05:48:32.131Z,28.78
2022-12-13T05:49:02.178Z,28.79
2022-12-13T05:49:32.419Z,28.79
2022-12-13T05:50:02.287Z,28.79
2022-12-13T05:50:32.312Z,28.74
2022-12-13T05:51:10.049Z,28.83
2022-12-13T05:51:32.381Z,28.79
2022-12-13T05:52:02.408Z,28.73
2022-12-13T05:52:32.437Z,28.72
2022-12-13T05:53:02.458Z,28.86
2022-12-13T05:53:32.479Z,28.89
2022-12-13T05:54:02.509Z,28.81
2022-12-13T05:54:32.537Z,28.94
2022-12-13T05:55:02.552Z,28.81
2022-12-13T05:55:32.579Z,28.80
2022-12-13T05:56:02.600Z,28.80
2022-12-13T05:56:32.628Z,29.03
2022-12-13T05:57:02.655Z,29.17
2022-12-13T05:57:32.684Z,29.15
2022-12-13T05:58:02.764Z,29.12
2022-12-13T05:58:35.633Z,29.05
2022-12-13T05:59:02.814Z,29.00
2022-12-13T05:59:32.837Z,28.87
2022-12-13T06:00:02.863Z,28.79
2022-12-13T06:00:32.886Z,28.79
2022-12-13T06:01:02.906Z,28.67
2022-12-13T06:01:32.936Z,28.60
2022-12-13T06:02:03.234Z,28.54
2022-12-13T06:02:33.271Z,28.50
2022-12-13T06:03:03.255Z,28.40
2022-12-13T06:03:33.261Z,28.32
2022-12-13T06:04:03.199Z,28.28
2022-12-13T06:04:33.255Z,28.25
2022-12-13T06:05:03.260Z,28.25
2022-12-13T06:05:33.335Z,28.16
2022-12-13T06:06:03.365Z,28.16
2022-12-13T06:06:33.389Z,28.16
2022-12-13T06:07:03.420Z,28.07
2022-12-13T06:07:33.449Z,28.04
2022-12-13T06:08:03.539Z,27.93
2022-12-13T06:08:33.618Z,27.82
2022-12-13T06:09:03.649Z,27.82
2022-12-13T06:09:33.561Z,27.76
2022-12-13T06:10:10.227Z,27.65
2022-12-13T06:10:34.802Z,27.51
2022-12-13T06:11:10.784Z,27.43
2022-12-13T06:11:33.712Z,27.42
2022-12-13T06:12:03.740Z,27.25
2022-12-13T06:12:33.787Z,27.20
2022-12-13T06:13:20.992Z,27.04
2022-12-13T06:13:33.853Z,26.93
2022-12-13T06:14:03.890Z,26.95
2022-12-13T06:14:33.942Z,26.93
2022-12-13T06:15:03.958Z,26.89
2022-12-13T06:15:34.822Z,26.83
2022-12-13T06:16:04.044Z,26.78
2022-12-13T06:16:34.120Z,26.81
2022-12-13T06:17:04.216Z,26.77
2022-12-13T06:17:34.233Z,26.67
2022-12-13T06:18:04.293Z,26.63
2022-12-13T06:18:34.303Z,26.55
2022-12-13T06:19:04.897Z,26.60
2022-12-13T06:19:34.406Z,26.58
2022-12-13T06:20:23.144Z,26.54
2022-12-13T06:20:34.477Z,26.58
2022-12-13T06:21:04.500Z,26.52
2022-12-13T06:21:44.132Z,26.57
2022-12-13T06:22:04.783Z,26.49
2022-12-13T06:22:34.687Z,26.57
2022-12-13T06:23:04.713Z,26.59
2022-12-13T06:23:34.737Z,26.54
2022-12-13T06:24:04.763Z,26.59
2022-12-13T06:24:34.783Z,26.59
2022-12-13T06:25:04.808Z,26.64
2022-12-13T06:25:34.833Z,26.61
2022-12-13T06:26:04.858Z,26.66
2022-12-13T06:26:34.877Z,27.07
2022-12-13T06:27:04.927Z,26.99
2022-12-13T06:27:34.919Z,26.99
2022-12-13T06:28:04.973Z,27.02